sensor_id;sensor_type;location;lat;lon;timestamp;P1;durP1;ratioP1;P2;durP2;ratioP2
55053;SDS011;40954;45.668;18.980;2023-06-10T00:02:21;11.52;;;6.00;;
55053;SDS011;40954;45.668;18.980;2023-06-10T00:04:47;7.13;;;5.43;;
55053;SDS011;40954;45.668;18.980;2023-06-10T00:07:13;6.55;;;5.88;;
55053;SDS011;40954;45.668;18.980;2023-06-10T00:09:39;7.07;;;4.90;;
55053;SDS011;40954;45.668;18.980;2023-06-10T00:12:06;6.82;;;5.40;;
55053;SDS011;40954;45.668;18.980;2023-06-10T00:14:32;7.13;;;5.47;;
55053;SDS011;40954;45.668;18.980;2023-06-10T00:16:58;6.30;;;4.35;;
55053;SDS011;40954;45.668;18.980;2023-06-10T00:19:24;5.47;;;4.97;;
55053;SDS011;40954;45.668;18.980;2023-06-10T00:21:55;7.07;;;4.93;;
55053;SDS011;40954;45.668;18.980;2023-06-10T00:24:21;5.75;;;4.85;;
55053;SDS011;40954;45.668;18.980;2023-06-10T00:26:47;6.00;;;5.18;;
55053;SDS011;40954;45.668;18.980;2023-06-10T00:29:13;9.10;;;4.82;;
55053;SDS011;40954;45.668;18.980;2023-06-10T00:31:40;7.45;;;4.63;;
55053;SDS011;40954;45.668;18.980;2023-06-10T00:34:06;5.72;;;4.22;;
55053;SDS011;40954;45.668;18.980;2023-06-10T00:36:32;7.50;;;3.80;;
55053;SDS011;40954;45.668;18.980;2023-06-10T00:38:58;4.22;;;3.40;;
55053;SDS011;40954;45.668;18.980;2023-06-10T00:41:24;7.30;;;3.92;;
55053;SDS011;40954;45.668;18.980;2023-06-10T00:43:51;5.50;;;3.17;;
55053;SDS011;40954;45.668;18.980;2023-06-10T00:46:17;7.55;;;3.88;;
55053;SDS011;40954;45.668;18.980;2023-06-10T00:48:44;3.70;;;3.40;;
55053;SDS011;40954;45.668;18.980;2023-06-10T00:51:10;3.90;;;3.55;;
55053;SDS011;40954;45.668;18.980;2023-06-10T00:53:37;4.97;;;4.47;;
55053;SDS011;40954;45.668;18.980;2023-06-10T00:56:04;4.88;;;3.80;;
55053;SDS011;40954;45.668;18.980;2023-06-10T00:58:30;4.85;;;3.90;;
55053;SDS011;40954;45.668;18.980;2023-06-10T01:00:57;6.90;;;3.60;;
55053;SDS011;40954;45.668;18.980;2023-06-10T01:03:23;4.20;;;3.55;;
55053;SDS011;40954;45.668;18.980;2023-06-10T01:09:01;4.72;;;3.65;;
55053;SDS011;40954;45.668;18.980;2023-06-10T01:11:28;4.07;;;3.47;;
55053;SDS011;40954;45.668;18.980;2023-06-10T01:13:55;5.55;;;3.90;;
55053;SDS011;40954;45.668;18.980;2023-06-10T01:16:22;4.93;;;3.78;;
55053;SDS011;40954;45.668;18.980;2023-06-10T01:18:48;4.93;;;4.43;;
55053;SDS011;40954;45.668;18.980;2023-06-10T01:21:23;4.78;;;4.38;;
55053;SDS011;40954;45.668;18.980;2023-06-10T01:23:52;6.70;;;4.90;;
55053;SDS011;40954;45.668;18.980;2023-06-10T01:26:19;7.10;;;4.47;;
55053;SDS011;40954;45.668;18.980;2023-06-10T01:28:51;5.20;;;3.60;;
55053;SDS011;40954;45.668;18.980;2023-06-10T01:31:31;5.53;;;4.07;;
55053;SDS011;40954;45.668;18.980;2023-06-10T01:34:02;9.40;;;5.32;;
55053;SDS011;40954;45.668;18.980;2023-06-10T01:36:29;7.68;;;4.95;;
55053;SDS011;40954;45.668;18.980;2023-06-10T01:38:55;8.82;;;5.10;;
55053;SDS011;40954;45.668;18.980;2023-06-10T01:41:22;6.10;;;5.25;;
55053;SDS011;40954;45.668;18.980;2023-06-10T01:43:48;7.75;;;5.68;;
55053;SDS011;40954;45.668;18.980;2023-06-10T01:46:15;7.07;;;4.65;;
55053;SDS011;40954;45.668;18.980;2023-06-10T01:48:44;7.80;;;5.32;;
55053;SDS011;40954;45.668;18.980;2023-06-10T01:51:10;6.70;;;5.15;;
55053;SDS011;40954;45.668;18.980;2023-06-10T01:53:36;9.55;;;6.45;;
55053;SDS011;40954;45.668;18.980;2023-06-10T01:56:03;12.15;;;6.38;;
55053;SDS011;40954;45.668;18.980;2023-06-10T01:58:29;6.35;;;5.32;;
55053;SDS011;40954;45.668;18.980;2023-06-10T02:00:55;9.15;;;5.40;;
55053;SDS011;40954;45.668;18.980;2023-06-10T02:03:21;9.50;;;6.05;;
55053;SDS011;40954;45.668;18.980;2023-06-10T02:05:47;6.45;;;5.53;;
55053;SDS011;40954;45.668;18.980;2023-06-10T02:08:13;9.23;;;6.93;;
55053;SDS011;40954;45.668;18.980;2023-06-10T02:10:39;6.82;;;6.18;;
55053;SDS011;40954;45.668;18.980;2023-06-10T02:13:05;6.05;;;5.55;;
55053;SDS011;40954;45.668;18.980;2023-06-10T02:15:32;6.35;;;5.57;;
55053;SDS011;40954;45.668;18.980;2023-06-10T02:17:58;6.85;;;5.50;;
55053;SDS011;40954;45.668;18.980;2023-06-10T02:20:25;7.50;;;5.80;;
55053;SDS011;40954;45.668;18.980;2023-06-10T02:22:51;7.60;;;6.50;;
55053;SDS011;40954;45.668;18.980;2023-06-10T02:25:17;8.15;;;5.72;;
55053;SDS011;40954;45.668;18.980;2023-06-10T02:27:43;6.88;;;6.28;;
55053;SDS011;40954;45.668;18.980;2023-06-10T02:30:10;7.05;;;6.45;;
55053;SDS011;40954;45.668;18.980;2023-06-10T02:32:36;12.68;;;6.22;;
55053;SDS011;40954;45.668;18.980;2023-06-10T02:35:02;6.13;;;5.53;;
55053;SDS011;40954;45.668;18.980;2023-06-10T02:37:28;7.15;;;6.03;;
55053;SDS011;40954;45.668;18.980;2023-06-10T02:39:54;7.13;;;5.50;;
55053;SDS011;40954;45.668;18.980;2023-06-10T02:42:20;7.07;;;6.38;;
55053;SDS011;40954;45.668;18.980;2023-06-10T02:44:46;7.10;;;6.40;;
55053;SDS011;40954;45.668;18.980;2023-06-10T02:47:12;9.10;;;6.55;;
55053;SDS011;40954;45.668;18.980;2023-06-10T02:49:38;7.90;;;6.22;;
55053;SDS011;40954;45.668;18.980;2023-06-10T02:52:05;7.32;;;6.35;;
55053;SDS011;40954;45.668;18.980;2023-06-10T02:54:32;8.63;;;6.35;;
55053;SDS011;40954;45.668;18.980;2023-06-10T02:56:58;11.20;;;5.78;;
55053;SDS011;40954;45.668;18.980;2023-06-10T02:59:24;10.32;;;6.20;;
55053;SDS011;40954;45.668;18.980;2023-06-10T03:01:51;7.68;;;6.50;;
55053;SDS011;40954;45.668;18.980;2023-06-10T03:04:18;8.00;;;6.45;;
55053;SDS011;40954;45.668;18.980;2023-06-10T03:06:45;8.30;;;5.80;;
55053;SDS011;40954;45.668;18.980;2023-06-10T03:09:12;7.30;;;6.32;;
55053;SDS011;40954;45.668;18.980;2023-06-10T03:11:38;7.57;;;6.15;;
55053;SDS011;40954;45.668;18.980;2023-06-10T03:14:04;8.65;;;6.57;;
55053;SDS011;40954;45.668;18.980;2023-06-10T03:16:30;6.63;;;5.95;;
55053;SDS011;40954;45.668;18.980;2023-06-10T03:18:57;7.65;;;6.20;;
55053;SDS011;40954;45.668;18.980;2023-06-10T03:21:23;6.75;;;6.03;;
55053;SDS011;40954;45.668;18.980;2023-06-10T03:23:49;7.45;;;6.50;;
55053;SDS011;40954;45.668;18.980;2023-06-10T03:26:15;8.80;;;5.78;;
55053;SDS011;40954;45.668;18.980;2023-06-10T03:28:41;7.38;;;6.10;;
55053;SDS011;40954;45.668;18.980;2023-06-10T03:31:07;7.07;;;6.05;;
55053;SDS011;40954;45.668;18.980;2023-06-10T03:33:34;6.65;;;5.93;;
55053;SDS011;40954;45.668;18.980;2023-06-10T03:36:00;9.40;;;5.97;;
55053;SDS011;40954;45.668;18.980;2023-06-10T03:38:27;7.15;;;6.25;;
55053;SDS011;40954;45.668;18.980;2023-06-10T03:40:53;11.13;;;6.13;;
55053;SDS011;40954;45.668;18.980;2023-06-10T03:43:19;8.43;;;6.03;;
55053;SDS011;40954;45.668;18.980;2023-06-10T03:45:45;6.82;;;6.22;;
55053;SDS011;40954;45.668;18.980;2023-06-10T03:48:11;7.45;;;6.00;;
55053;SDS011;40954;45.668;18.980;2023-06-10T03:50:37;6.78;;;6.18;;
55053;SDS011;40954;45.668;18.980;2023-06-10T03:53:03;8.20;;;6.63;;
55053;SDS011;40954;45.668;18.980;2023-06-10T03:55:29;8.50;;;6.28;;
55053;SDS011;40954;45.668;18.980;2023-06-10T03:57:56;7.70;;;6.15;;
55053;SDS011;40954;45.668;18.980;2023-06-10T04:00:23;8.55;;;5.90;;
55053;SDS011;40954;45.668;18.980;2023-06-10T04:02:49;7.55;;;6.78;;
55053;SDS011;40954;45.668;18.980;2023-06-10T04:05:17;7.93;;;7.13;;
55053;SDS011;40954;45.668;18.980;2023-06-10T04:07:43;9.73;;;7.45;;
55053;SDS011;40954;45.668;18.980;2023-06-10T04:10:10;9.55;;;6.68;;
55053;SDS011;40954;45.668;18.980;2023-06-10T04:12:37;7.40;;;6.43;;
55053;SDS011;40954;45.668;18.980;2023-06-10T04:15:03;7.13;;;6.38;;
55053;SDS011;40954;45.668;18.980;2023-06-10T04:17:30;8.02;;;5.68;;
55053;SDS011;40954;45.668;18.980;2023-06-10T04:19:56;7.38;;;5.20;;
55053;SDS011;40954;45.668;18.980;2023-06-10T04:22:23;6.15;;;4.85;;
55053;SDS011;40954;45.668;18.980;2023-06-10T04:24:49;5.22;;;4.72;;
55053;SDS011;40954;45.668;18.980;2023-06-10T04:27:15;4.82;;;4.38;;
55053;SDS011;40954;45.668;18.980;2023-06-10T04:29:41;4.63;;;4.20;;
55053;SDS011;40954;45.668;18.980;2023-06-10T04:32:07;7.55;;;4.40;;
55053;SDS011;40954;45.668;18.980;2023-06-10T04:34:33;4.97;;;4.43;;
55053;SDS011;40954;45.668;18.980;2023-06-10T04:37:00;8.23;;;4.30;;
55053;SDS011;40954;45.668;18.980;2023-06-10T04:39:26;5.65;;;3.95;;
55053;SDS011;40954;45.668;18.980;2023-06-10T04:41:52;4.85;;;4.03;;
55053;SDS011;40954;45.668;18.980;2023-06-10T04:44:18;6.68;;;4.05;;
55053;SDS011;40954;45.668;18.980;2023-06-10T04:46:44;4.90;;;4.40;;
55053;SDS011;40954;45.668;18.980;2023-06-10T04:49:11;6.65;;;3.88;;
55053;SDS011;40954;45.668;18.980;2023-06-10T04:51:39;7.72;;;5.50;;
55053;SDS011;40954;45.668;18.980;2023-06-10T04:54:05;5.40;;;3.70;;
55053;SDS011;40954;45.668;18.980;2023-06-10T04:56:31;10.20;;;3.75;;
55053;SDS011;40954;45.668;18.980;2023-06-10T04:58:57;6.60;;;3.80;;
55053;SDS011;40954;45.668;18.980;2023-06-10T05:01:24;3.92;;;3.53;;
55053;SDS011;40954;45.668;18.980;2023-06-10T05:03:50;6.43;;;3.83;;
55053;SDS011;40954;45.668;18.980;2023-06-10T05:06:16;5.97;;;3.65;;
55053;SDS011;40954;45.668;18.980;2023-06-10T05:08:42;3.22;;;2.85;;
55053;SDS011;40954;45.668;18.980;2023-06-10T05:11:08;4.03;;;3.60;;
55053;SDS011;40954;45.668;18.980;2023-06-10T05:13:35;3.10;;;2.90;;
55053;SDS011;40954;45.668;18.980;2023-06-10T05:16:01;3.28;;;2.97;;
55053;SDS011;40954;45.668;18.980;2023-06-10T05:18:27;3.70;;;3.13;;
55053;SDS011;40954;45.668;18.980;2023-06-10T05:20:53;3.85;;;3.28;;
55053;SDS011;40954;45.668;18.980;2023-06-10T05:23:19;3.60;;;3.15;;
55053;SDS011;40954;45.668;18.980;2023-06-10T05:25:46;3.70;;;3.08;;
55053;SDS011;40954;45.668;18.980;2023-06-10T05:28:12;5.28;;;3.42;;
55053;SDS011;40954;45.668;18.980;2023-06-10T05:30:39;5.88;;;3.15;;
55053;SDS011;40954;45.668;18.980;2023-06-10T05:33:05;4.50;;;3.50;;
55053;SDS011;40954;45.668;18.980;2023-06-10T05:35:31;5.20;;;3.28;;
55053;SDS011;40954;45.668;18.980;2023-06-10T05:37:57;5.65;;;3.80;;
55053;SDS011;40954;45.668;18.980;2023-06-10T05:40:23;5.03;;;3.05;;
55053;SDS011;40954;45.668;18.980;2023-06-10T05:42:49;5.18;;;4.60;;
55053;SDS011;40954;45.668;18.980;2023-06-10T05:45:15;7.22;;;5.22;;
55053;SDS011;40954;45.668;18.980;2023-06-10T05:47:41;5.22;;;4.03;;
55053;SDS011;40954;45.668;18.980;2023-06-10T05:50:07;3.45;;;3.15;;
55053;SDS011;40954;45.668;18.980;2023-06-10T05:52:37;7.55;;;3.90;;
55053;SDS011;40954;45.668;18.980;2023-06-10T05:55:05;4.83;;;3.93;;
55053;SDS011;40954;45.668;18.980;2023-06-10T05:57:32;3.40;;;3.20;;
55053;SDS011;40954;45.668;18.980;2023-06-10T05:59:58;3.55;;;3.25;;
55053;SDS011;40954;45.668;18.980;2023-06-10T06:02:24;5.53;;;3.50;;
55053;SDS011;40954;45.668;18.980;2023-06-10T06:04:50;4.25;;;3.13;;
55053;SDS011;40954;45.668;18.980;2023-06-10T06:07:16;4.45;;;3.70;;
55053;SDS011;40954;45.668;18.980;2023-06-10T06:09:42;5.40;;;4.03;;
55053;SDS011;40954;45.668;18.980;2023-06-10T06:12:08;3.78;;;3.30;;
55053;SDS011;40954;45.668;18.980;2023-06-10T06:14:38;3.70;;;3.38;;
55053;SDS011;40954;45.668;18.980;2023-06-10T06:17:05;4.03;;;3.50;;
55053;SDS011;40954;45.668;18.980;2023-06-10T06:19:31;6.03;;;5.32;;
55053;SDS011;40954;45.668;18.980;2023-06-10T06:21:58;3.97;;;3.42;;
55053;SDS011;40954;45.668;18.980;2023-06-10T06:24:24;4.25;;;3.90;;
55053;SDS011;40954;45.668;18.980;2023-06-10T06:26:50;5.82;;;3.60;;
55053;SDS011;40954;45.668;18.980;2023-06-10T06:29:16;3.83;;;3.53;;
55053;SDS011;40954;45.668;18.980;2023-06-10T06:31:42;4.63;;;4.22;;
55053;SDS011;40954;45.668;18.980;2023-06-10T06:34:08;4.13;;;3.60;;
55053;SDS011;40954;45.668;18.980;2023-06-10T06:36:34;4.18;;;3.47;;
55053;SDS011;40954;45.668;18.980;2023-06-10T06:39:00;6.63;;;5.25;;
55053;SDS011;40954;45.668;18.980;2023-06-10T06:41:26;4.93;;;4.32;;
55053;SDS011;40954;45.668;18.980;2023-06-10T06:43:53;5.97;;;5.20;;
55053;SDS011;40954;45.668;18.980;2023-06-10T06:46:19;6.78;;;5.68;;
55053;SDS011;40954;45.668;18.980;2023-06-10T06:48:47;4.30;;;3.90;;
55053;SDS011;40954;45.668;18.980;2023-06-10T06:51:13;4.00;;;3.50;;
55053;SDS011;40954;45.668;18.980;2023-06-10T06:53:39;5.35;;;4.38;;
55053;SDS011;40954;45.668;18.980;2023-06-10T06:56:12;4.88;;;4.43;;
55053;SDS011;40954;45.668;18.980;2023-06-10T06:58:38;5.72;;;5.03;;
55053;SDS011;40954;45.668;18.980;2023-06-10T07:01:04;4.65;;;3.85;;
55053;SDS011;40954;45.668;18.980;2023-06-10T07:03:31;5.50;;;5.00;;
55053;SDS011;40954;45.668;18.980;2023-06-10T07:05:57;5.22;;;4.43;;
55053;SDS011;40954;45.668;18.980;2023-06-10T07:08:23;4.90;;;4.40;;
55053;SDS011;40954;45.668;18.980;2023-06-10T07:10:49;4.85;;;4.30;;
55053;SDS011;40954;45.668;18.980;2023-06-10T07:13:15;6.43;;;4.65;;
55053;SDS011;40954;45.668;18.980;2023-06-10T07:15:41;4.65;;;4.25;;
55053;SDS011;40954;45.668;18.980;2023-06-10T07:18:07;5.38;;;4.88;;
55053;SDS011;40954;45.668;18.980;2023-06-10T07:20:33;5.93;;;5.43;;
55053;SDS011;40954;45.668;18.980;2023-06-10T07:23:00;5.13;;;4.72;;
55053;SDS011;40954;45.668;18.980;2023-06-10T07:25:26;5.53;;;5.03;;
55053;SDS011;40954;45.668;18.980;2023-06-10T07:27:52;10.02;;;4.60;;
55053;SDS011;40954;45.668;18.980;2023-06-10T07:30:18;7.13;;;4.70;;
55053;SDS011;40954;45.668;18.980;2023-06-10T07:32:44;4.30;;;3.83;;
55053;SDS011;40954;45.668;18.980;2023-06-10T07:35:10;6.05;;;4.78;;
55053;SDS011;40954;45.668;18.980;2023-06-10T07:37:36;4.72;;;4.43;;
55053;SDS011;40954;45.668;18.980;2023-06-10T07:40:02;6.28;;;4.72;;
55053;SDS011;40954;45.668;18.980;2023-06-10T07:42:29;4.88;;;4.43;;
55053;SDS011;40954;45.668;18.980;2023-06-10T07:44:55;5.18;;;4.78;;
55053;SDS011;40954;45.668;18.980;2023-06-10T07:47:21;6.05;;;4.65;;
55053;SDS011;40954;45.668;18.980;2023-06-10T07:49:47;5.05;;;4.55;;
55053;SDS011;40954;45.668;18.980;2023-06-10T07:52:13;4.55;;;4.15;;
55053;SDS011;40954;45.668;18.980;2023-06-10T07:54:39;4.50;;;4.20;;
55053;SDS011;40954;45.668;18.980;2023-06-10T07:57:05;8.15;;;5.47;;
55053;SDS011;40954;45.668;18.980;2023-06-10T07:59:32;5.75;;;5.00;;
55053;SDS011;40954;45.668;18.980;2023-06-10T08:01:58;5.13;;;4.60;;
55053;SDS011;40954;45.668;18.980;2023-06-10T08:04:24;6.72;;;5.50;;
55053;SDS011;40954;45.668;18.980;2023-06-10T08:06:50;4.40;;;4.10;;
55053;SDS011;40954;45.668;18.980;2023-06-10T08:09:16;5.30;;;4.88;;
55053;SDS011;40954;45.668;18.980;2023-06-10T08:11:43;4.45;;;4.15;;
55053;SDS011;40954;45.668;18.980;2023-06-10T08:14:09;5.15;;;4.75;;
55053;SDS011;40954;45.668;18.980;2023-06-10T08:16:35;5.70;;;5.20;;
55053;SDS011;40954;45.668;18.980;2023-06-10T08:19:01;7.57;;;4.55;;
55053;SDS011;40954;45.668;18.980;2023-06-10T08:21:27;5.05;;;4.65;;
55053;SDS011;40954;45.668;18.980;2023-06-10T08:23:54;5.05;;;4.45;;
55053;SDS011;40954;45.668;18.980;2023-06-10T08:26:20;6.93;;;4.43;;
55053;SDS011;40954;45.668;18.980;2023-06-10T08:28:46;4.63;;;4.32;;
55053;SDS011;40954;45.668;18.980;2023-06-10T08:31:12;4.03;;;3.72;;
55053;SDS011;40954;45.668;18.980;2023-06-10T08:33:38;6.10;;;4.00;;
55053;SDS011;40954;45.668;18.980;2023-06-10T08:36:04;6.18;;;4.68;;
55053;SDS011;40954;45.668;18.980;2023-06-10T08:38:30;4.75;;;4.30;;
55053;SDS011;40954;45.668;18.980;2023-06-10T08:40:58;4.97;;;4.38;;
55053;SDS011;40954;45.668;18.980;2023-06-10T08:43:31;6.97;;;5.03;;
55053;SDS011;40954;45.668;18.980;2023-06-10T08:45:59;4.50;;;3.75;;
55053;SDS011;40954;45.668;18.980;2023-06-10T08:48:29;9.73;;;3.88;;
55053;SDS011;40954;45.668;18.980;2023-06-10T08:50:56;4.65;;;4.25;;
55053;SDS011;40954;45.668;18.980;2023-06-10T08:53:23;3.92;;;3.72;;
55053;SDS011;40954;45.668;18.980;2023-06-10T08:55:52;5.88;;;5.38;;
55053;SDS011;40954;45.668;18.980;2023-06-10T08:58:19;4.28;;;3.88;;
55053;SDS011;40954;45.668;18.980;2023-06-10T09:00:46;4.20;;;3.90;;
55053;SDS011;40954;45.668;18.980;2023-06-10T09:03:12;4.60;;;4.18;;
55053;SDS011;40954;45.668;18.980;2023-06-10T09:05:38;4.93;;;4.05;;
55053;SDS011;40954;45.668;18.980;2023-06-10T09:08:07;4.18;;;3.78;;
55053;SDS011;40954;45.668;18.980;2023-06-10T09:10:34;3.15;;;2.95;;
55053;SDS011;40954;45.668;18.980;2023-06-10T09:13:00;8.80;;;3.88;;
55053;SDS011;40954;45.668;18.980;2023-06-10T09:15:26;3.35;;;3.13;;
55053;SDS011;40954;45.668;18.980;2023-06-10T09:17:52;3.08;;;2.88;;
55053;SDS011;40954;45.668;18.980;2023-06-10T09:20:18;3.13;;;2.92;;
55053;SDS011;40954;45.668;18.980;2023-06-10T09:22:45;4.40;;;2.47;;
55053;SDS011;40954;45.668;18.980;2023-06-10T09:25:11;3.45;;;3.15;;
55053;SDS011;40954;45.668;18.980;2023-06-10T09:27:48;3.13;;;2.92;;
55053;SDS011;40954;45.668;18.980;2023-06-10T09:32:51;4.85;;;3.03;;
55053;SDS011;40954;45.668;18.980;2023-06-10T09:35:18;3.28;;;2.30;;
55053;SDS011;40954;45.668;18.980;2023-06-10T09:37:44;4.60;;;2.80;;
55053;SDS011;40954;45.668;18.980;2023-06-10T09:40:11;8.43;;;3.08;;
55053;SDS011;40954;45.668;18.980;2023-06-10T09:42:39;2.53;;;2.42;;
55053;SDS011;40954;45.668;18.980;2023-06-10T09:45:06;2.70;;;2.60;;
55053;SDS011;40954;45.668;18.980;2023-06-10T09:47:32;2.28;;;2.17;;
55053;SDS011;40954;45.668;18.980;2023-06-10T09:49:58;2.47;;;2.30;;
55053;SDS011;40954;45.668;18.980;2023-06-10T09:52:26;2.95;;;2.60;;
55053;SDS011;40954;45.668;18.980;2023-06-10T09:54:52;2.33;;;2.22;;
55053;SDS011;40954;45.668;18.980;2023-06-10T09:57:21;2.50;;;2.33;;
55053;SDS011;40954;45.668;18.980;2023-06-10T09:59:47;3.38;;;2.63;;
55053;SDS011;40954;45.668;18.980;2023-06-10T10:02:17;6.03;;;3.33;;
55053;SDS011;40954;45.668;18.980;2023-06-10T10:04:46;2.50;;;2.30;;
55053;SDS011;40954;45.668;18.980;2023-06-10T10:07:12;3.28;;;2.42;;
55053;SDS011;40954;45.668;18.980;2023-06-10T10:09:38;2.90;;;2.70;;
55053;SDS011;40954;45.668;18.980;2023-06-10T10:12:14;3.00;;;2.80;;
55053;SDS011;40954;45.668;18.980;2023-06-10T10:14:47;3.85;;;3.33;;
55053;SDS011;40954;45.668;18.980;2023-06-10T10:17:14;3.80;;;2.15;;
55053;SDS011;40954;45.668;18.980;2023-06-10T10:19:46;3.20;;;2.85;;
55053;SDS011;40954;45.668;18.980;2023-06-10T10:22:15;2.53;;;2.33;;
55053;SDS011;40954;45.668;18.980;2023-06-10T10:24:42;2.70;;;2.50;;
55053;SDS011;40954;45.668;18.980;2023-06-10T10:27:14;5.45;;;2.50;;
55053;SDS011;40954;45.668;18.980;2023-06-10T10:29:43;2.38;;;2.25;;
55053;SDS011;40954;45.668;18.980;2023-06-10T10:32:11;2.10;;;2.00;;
55053;SDS011;40954;45.668;18.980;2023-06-10T10:37:23;2.50;;;2.40;;
55053;SDS011;40954;45.668;18.980;2023-06-10T10:39:49;3.47;;;2.33;;
55053;SDS011;40954;45.668;18.980;2023-06-10T10:42:16;2.20;;;2.10;;
55053;SDS011;40954;45.668;18.980;2023-06-10T10:44:42;2.40;;;2.20;;
55053;SDS011;40954;45.668;18.980;2023-06-10T10:47:08;2.30;;;2.10;;
55053;SDS011;40954;45.668;18.980;2023-06-10T10:49:35;2.83;;;2.10;;
55053;SDS011;40954;45.668;18.980;2023-06-10T10:52:02;2.25;;;2.15;;
55053;SDS011;40954;45.668;18.980;2023-06-10T10:54:35;4.25;;;2.85;;
55053;SDS011;40954;45.668;18.980;2023-06-10T11:05:03;3.35;;;2.17;;
55053;SDS011;40954;45.668;18.980;2023-06-10T11:07:31;4.85;;;2.67;;
55053;SDS011;40954;45.668;18.980;2023-06-10T11:10:06;2.30;;;2.00;;
55053;SDS011;40954;45.668;18.980;2023-06-10T11:15:24;2.35;;;2.22;;
55053;SDS011;40954;45.668;18.980;2023-06-10T11:25:54;2.50;;;2.30;;
55053;SDS011;40954;45.668;18.980;2023-06-10T11:28:35;2.60;;;2.40;;
55053;SDS011;40954;45.668;18.980;2023-06-10T11:31:01;2.28;;;2.17;;
55053;SDS011;40954;45.668;18.980;2023-06-10T11:33:27;2.88;;;2.20;;
55053;SDS011;40954;45.668;18.980;2023-06-10T11:35:54;3.72;;;2.50;;
55053;SDS011;40954;45.668;18.980;2023-06-10T11:38:20;2.35;;;2.20;;
55053;SDS011;40954;45.668;18.980;2023-06-10T11:40:48;2.83;;;2.60;;
55053;SDS011;40954;45.668;18.980;2023-06-10T11:43:15;2.97;;;2.78;;
55053;SDS011;40954;45.668;18.980;2023-06-10T11:45:42;2.42;;;2.22;;
55053;SDS011;40954;45.668;18.980;2023-06-10T11:48:08;2.35;;;2.25;;
55053;SDS011;40954;45.668;18.980;2023-06-10T11:50:34;2.70;;;2.50;;
55053;SDS011;40954;45.668;18.980;2023-06-10T11:53:01;2.50;;;2.30;;
55053;SDS011;40954;45.668;18.980;2023-06-10T11:58:15;2.33;;;2.20;;
55053;SDS011;40954;45.668;18.980;2023-06-10T12:00:51;2.40;;;2.30;;
55053;SDS011;40954;45.668;18.980;2023-06-10T12:03:26;2.65;;;2.45;;
55053;SDS011;40954;45.668;18.980;2023-06-10T12:05:56;2.08;;;1.98;;
55053;SDS011;40954;45.668;18.980;2023-06-10T12:08:23;3.03;;;2.30;;
55053;SDS011;40954;45.668;18.980;2023-06-10T12:10:49;2.10;;;2.00;;
55053;SDS011;40954;45.668;18.980;2023-06-10T12:13:15;1.98;;;1.88;;
55053;SDS011;40954;45.668;18.980;2023-06-10T12:15:43;2.55;;;1.98;;
55053;SDS011;40954;45.668;18.980;2023-06-10T12:18:19;2.40;;;2.20;;
55053;SDS011;40954;45.668;18.980;2023-06-10T12:20:46;2.70;;;2.15;;
55053;SDS011;40954;45.668;18.980;2023-06-10T12:23:13;3.08;;;2.17;;
55053;SDS011;40954;45.668;18.980;2023-06-10T12:25:42;2.38;;;2.00;;
55053;SDS011;40954;45.668;18.980;2023-06-10T12:28:15;2.15;;;1.80;;
55053;SDS011;40954;45.668;18.980;2023-06-10T12:30:42;3.97;;;2.10;;
55053;SDS011;40954;45.668;18.980;2023-06-10T12:35:50;4.82;;;2.65;;
55053;SDS011;40954;45.668;18.980;2023-06-10T12:38:26;2.10;;;1.95;;
55053;SDS011;40954;45.668;18.980;2023-06-10T12:40:52;2.50;;;2.30;;
55053;SDS011;40954;45.668;18.980;2023-06-10T12:43:24;2.60;;;2.40;;
55053;SDS011;40954;45.668;18.980;2023-06-10T12:45:50;2.70;;;2.15;;
55053;SDS011;40954;45.668;18.980;2023-06-10T12:48:23;3.20;;;2.90;;
55053;SDS011;40954;45.668;18.980;2023-06-10T12:50:51;2.40;;;2.30;;
55053;SDS011;40954;45.668;18.980;2023-06-10T12:53:17;6.57;;;3.38;;
55053;SDS011;40954;45.668;18.980;2023-06-10T12:55:43;8.07;;;2.88;;
55053;SDS011;40954;45.668;18.980;2023-06-10T12:58:10;2.80;;;2.60;;
55053;SDS011;40954;45.668;18.980;2023-06-10T13:00:36;2.35;;;2.25;;
55053;SDS011;40954;45.668;18.980;2023-06-10T13:03:03;2.63;;;2.45;;
55053;SDS011;40954;45.668;18.980;2023-06-10T13:05:31;2.60;;;2.40;;
55053;SDS011;40954;45.668;18.980;2023-06-10T13:07:57;3.03;;;2.70;;
55053;SDS011;40954;45.668;18.980;2023-06-10T13:10:23;4.25;;;2.50;;
55053;SDS011;40954;45.668;18.980;2023-06-10T13:12:50;2.67;;;2.50;;
55053;SDS011;40954;45.668;18.980;2023-06-10T13:15:16;2.70;;;2.50;;
55053;SDS011;40954;45.668;18.980;2023-06-10T13:17:43;2.97;;;2.72;;
55053;SDS011;40954;45.668;18.980;2023-06-10T13:20:13;2.85;;;2.50;;
55053;SDS011;40954;45.668;18.980;2023-06-10T13:22:40;2.50;;;2.30;;
55053;SDS011;40954;45.668;18.980;2023-06-10T13:25:06;2.75;;;2.05;;
55053;SDS011;40954;45.668;18.980;2023-06-10T13:27:33;3.88;;;2.70;;
55053;SDS011;40954;45.668;18.980;2023-06-10T13:29:59;3.47;;;2.42;;
55053;SDS011;40954;45.668;18.980;2023-06-10T13:32:25;2.33;;;2.17;;
55053;SDS011;40954;45.668;18.980;2023-06-10T13:34:51;2.35;;;2.15;;
55053;SDS011;40954;45.668;18.980;2023-06-10T13:37:19;2.38;;;2.28;;
55053;SDS011;40954;45.668;18.980;2023-06-10T13:39:45;3.50;;;2.28;;
55053;SDS011;40954;45.668;18.980;2023-06-10T13:42:18;2.10;;;2.00;;
55053;SDS011;40954;45.668;18.980;2023-06-10T13:44:44;1.90;;;1.80;;
55053;SDS011;40954;45.668;18.980;2023-06-10T13:47:14;2.58;;;2.38;;
55053;SDS011;40954;45.668;18.980;2023-06-10T13:49:40;2.10;;;2.00;;
55053;SDS011;40954;45.668;18.980;2023-06-10T13:52:06;2.17;;;2.08;;
55053;SDS011;40954;45.668;18.980;2023-06-10T13:54:33;2.88;;;2.67;;
55053;SDS011;40954;45.668;18.980;2023-06-10T13:57:02;2.30;;;2.20;;
55053;SDS011;40954;45.668;18.980;2023-06-10T13:59:28;2.30;;;2.10;;
55053;SDS011;40954;45.668;18.980;2023-06-10T14:01:54;3.78;;;2.47;;
55053;SDS011;40954;45.668;18.980;2023-06-10T14:04:21;2.50;;;2.30;;
55053;SDS011;40954;45.668;18.980;2023-06-10T14:06:47;3.15;;;2.17;;
55053;SDS011;40954;45.668;18.980;2023-06-10T14:09:14;1.77;;;1.60;;
55053;SDS011;40954;45.668;18.980;2023-06-10T14:11:41;1.55;;;1.50;;
55053;SDS011;40954;45.668;18.980;2023-06-10T14:14:07;1.58;;;1.52;;
55053;SDS011;40954;45.668;18.980;2023-06-10T14:16:34;1.67;;;1.58;;
55053;SDS011;40954;45.668;18.980;2023-06-10T14:19:00;2.03;;;1.92;;
55053;SDS011;40954;45.668;18.980;2023-06-10T14:21:26;2.40;;;2.30;;
55053;SDS011;40954;45.668;18.980;2023-06-10T14:23:52;1.70;;;1.60;;
55053;SDS011;40954;45.668;18.980;2023-06-10T14:26:18;2.40;;;2.30;;
55053;SDS011;40954;45.668;18.980;2023-06-10T14:28:46;2.60;;;2.40;;
55053;SDS011;40954;45.668;18.980;2023-06-10T14:31:12;2.08;;;1.98;;
55053;SDS011;40954;45.668;18.980;2023-06-10T14:33:38;1.73;;;1.63;;
55053;SDS011;40954;45.668;18.980;2023-06-10T14:36:07;1.88;;;1.73;;
55053;SDS011;40954;45.668;18.980;2023-06-10T14:38:33;1.85;;;1.75;;
55053;SDS011;40954;45.668;18.980;2023-06-10T14:40:58;2.88;;;2.40;;
55053;SDS011;40954;45.668;18.980;2023-06-10T14:43:24;1.88;;;1.77;;
55053;SDS011;40954;45.668;18.980;2023-06-10T14:45:50;2.35;;;2.15;;
55053;SDS011;40954;45.668;18.980;2023-06-10T14:48:16;2.05;;;1.90;;
55053;SDS011;40954;45.668;18.980;2023-06-10T14:50:41;1.95;;;1.83;;
55053;SDS011;40954;45.668;18.980;2023-06-10T14:53:10;2.80;;;1.80;;
55053;SDS011;40954;45.668;18.980;2023-06-10T14:55:36;1.67;;;1.58;;
55053;SDS011;40954;45.668;18.980;2023-06-10T14:58:01;1.90;;;1.80;;
55053;SDS011;40954;45.668;18.980;2023-06-10T15:00:28;2.03;;;1.92;;
55053;SDS011;40954;45.668;18.980;2023-06-10T15:02:54;1.77;;;1.55;;
55053;SDS011;40954;45.668;18.980;2023-06-10T15:05:22;2.15;;;2.05;;